Terminal Aerodrome Forecast
Issued by NWS

Home | Current Version | Previous Version | Text Only | Print | Product List | Glossary On
Versions: 1 2 3 4 5 6 7 8 9 10 11 12 13 14 15 16 17
000
FTUS46 KSGX 012329
TAFTRM
TAF
KTRM 012329Z 0200/0224 VRB06KT P6SM -SHRA SCT045 OVC080
     FM020800 VRB05KT P6SM VCSH SCT025 BKN045
     FM021900 14007KT P6SM BKN070
     FM022300 29012G20KT P6SM BKN100=

USA.gov is the U.S. government's official web portal to all federal, state and local government web resources and services.